Time;durP1;ratioP1;P1;durP2;ratioP2;P2;SDS_P1;SDS_P2;PMS_P1;PMS_P2;Temp;Humidity;BMP_temperature;BMP_pressure;BME280_temperature;BME280_humidity;BME280_pressure;Samples;Min_cycle;Max_cycle;Signal;HPM_P1;HPM_P2
2023/12/11 00:01:18;;;;;;;30.38;2.80;;;;;;;8.82;100.00;99640.41;7398927;19;20290;-80
2023/12/11 00:03:46;;;;;;;14.90;2.20;;;;;;;8.81;100.00;99637.91;7397933;19;19943;-80
2023/12/11 00:06:15;;;;;;;24.55;2.70;;;;;;;8.81;100.00;99638.72;7399040;19;20404;-78
2023/12/11 00:08:44;;;;;;;16.33;2.40;;;;;;;8.79;100.00;99645.34;7397462;19;19923;-80
2023/12/11 00:11:15;;;;;;;14.57;2.38;;;;;;;8.80;100.00;99647.00;7398044;19;19919;-78
2023/12/11 00:13:44;;;;;;;11.02;1.80;;;;;;;8.79;100.00;99645.34;7400296;19;19927;-80
2023/12/11 00:16:13;;;;;;;13.00;2.10;;;;;;;8.78;100.00;99643.69;7399422;19;19930;-80
2023/12/11 00:18:41;;;;;;;16.15;2.15;;;;;;;8.75;100.00;99644.91;7399247;19;19925;-80
2023/12/11 00:21:10;;;;;;;14.60;2.28;;;;;;;8.74;100.00;99648.59;7399536;19;19937;-78
2023/12/11 00:23:40;;;;;;;10.93;1.30;;;;;;;8.72;100.00;99655.19;7398417;19;19919;-80
2023/12/11 00:26:08;;;;;;;22.38;2.25;;;;;;;8.71;100.00;99651.69;7398455;19;20613;-80
2023/12/11 00:28:40;;;;;;;12.02;2.65;;;;;;;8.68;100.00;99649.38;7399253;19;19918;-81
2023/12/11 00:31:09;;;;;;;12.68;2.13;;;;;;;8.67;100.00;99645.06;7398707;19;19917;-80
2023/12/11 00:33:38;;;;;;;13.40;3.08;;;;;;;8.64;100.00;99659.69;7396728;19;19927;-81
2023/12/11 00:36:07;;;;;;;21.63;4.22;;;;;;;8.62;100.00;99644.81;7401009;19;19918;-78
2023/12/11 00:38:36;;;;;;;21.98;4.13;;;;;;;8.56;100.00;99651.78;7399425;19;19918;-77
2023/12/11 00:41:05;;;;;;;18.65;3.10;;;;;;;8.52;100.00;99646.97;7402398;19;19974;-77
2023/12/11 00:43:34;;;;;;;19.50;3.70;;;;;;;8.46;100.00;99650.41;7398444;19;19950;-80
2023/12/11 00:46:05;;;;;;;19.80;4.00;;;;;;;8.39;100.00;99644.19;7400223;19;20002;-80
2023/12/11 00:48:34;;;;;;;26.50;4.15;;;;;;;8.35;100.00;99657.16;7398306;19;19950;-78
2023/12/11 00:51:03;;;;;;;23.90;3.45;;;;;;;8.32;100.00;99675.50;7398735;19;20272;-78
2023/12/11 00:53:31;;;;;;;17.77;3.42;;;;;;;8.29;100.00;99649.88;7400868;19;19922;-80
2023/12/11 00:56:00;;;;;;;23.17;4.72;;;;;;;8.29;100.00;99663.28;7402386;19;19922;-80
2023/12/11 00:58:29;;;;;;;24.40;4.10;;;;;;;8.29;100.00;99649.00;7399934;19;19947;-79
2023/12/11 01:00:57;;;;;;;22.77;3.50;;;;;;;8.27;100.00;99654.56;7398103;19;19945;-80
2023/12/11 01:03:29;;;;;;;25.50;4.78;;;;;;;8.27;100.00;99656.41;7399215;19;19930;-80
2023/12/11 01:05:57;;;;;;;23.10;3.97;;;;;;;8.27;100.00;99645.69;7398809;19;19929;-80
2023/12/11 01:08:27;;;;;;;24.95;4.35;;;;;;;8.28;100.00;99647.34;7394708;19;19926;-80
2023/12/11 01:10:56;;;;;;;23.95;3.75;;;;;;;8.27;100.00;99651.88;7397451;19;19926;-80
2023/12/11 01:13:25;;;;;;;27.73;4.05;;;;;;;8.26;100.00;99647.53;7397413;19;20356;-80
2023/12/11 01:15:54;;;;;;;17.48;2.85;;;;;;;8.24;100.00;99644.19;7396660;19;19930;-80
2023/12/11 01:18:23;;;;;;;15.25;3.47;;;;;;;8.25;100.00;99647.72;7396360;19;20281;-80
2023/12/11 01:20:54;;;;;;;17.65;3.00;;;;;;;8.25;100.00;99653.09;7397621;19;19919;-80
2023/12/11 01:23:23;;;;;;;15.90;3.17;;;;;;;8.23;100.00;99642.56;7397709;19;20364;-80
2023/12/11 01:25:53;;;;;;;22.73;3.80;;;;;;;8.20;100.00;99641.09;7397118;19;20250;-80
2023/12/11 01:28:21;;;;;;;20.13;3.03;;;;;;;8.19;100.00;99646.66;7396681;19;19926;-80
2023/12/11 01:30:50;;;;;;;17.33;3.58;;;;;;;8.18;100.00;99659.22;7397843;19;19929;-80
2023/12/11 01:33:19;;;;;;;17.95;3.60;;;;;;;8.17;100.00;99651.38;7398361;19;19923;-80
2023/12/11 01:35:47;;;;;;;25.02;3.45;;;;;;;8.19;100.00;99638.59;7396091;19;19930;-80
2023/12/11 01:38:19;;;;;;;22.63;3.85;;;;;;;8.18;100.00;99645.00;7395381;19;20447;-80
2023/12/11 01:40:47;;;;;;;17.27;3.10;;;;;;;8.19;100.00;99647.50;7397367;19;19922;-80
2023/12/11 01:43:17;;;;;;;20.92;4.32;;;;;;;8.21;100.00;99649.97;7397859;19;19944;-80
2023/12/11 01:45:48;;;;;;;24.27;3.95;;;;;;;8.21;100.00;99644.59;7396504;19;19930;-80
2023/12/11 01:48:17;;;;;;;21.65;3.67;;;;;;;8.22;100.00;99635.53;7394806;19;19971;-80
2023/12/11 01:50:46;;;;;;;26.63;3.38;;;;;;;8.22;100.00;99632.84;7397562;19;19922;-80
2023/12/11 01:53:15;;;;;;;20.23;3.90;;;;;;;8.19;100.00;99641.28;7397621;19;19951;-80
2023/12/11 01:55:49;;;;;;;14.32;3.05;;;;;;;8.20;100.00;99650.97;7397074;19;19919;-80
2023/12/11 01:58:19;;;;;;;15.85;3.05;;;;;;;8.23;100.00;99639.88;7395527;19;20373;-80
2023/12/11 02:00:48;;;;;;;30.52;4.00;;;;;;;8.25;100.00;99639.66;7396000;19;19930;-80
2023/12/11 02:03:17;;;;;;;25.08;3.40;;;;;;;8.26;100.00;99644.03;7396764;19;20364;-80
2023/12/11 02:05:46;;;;;;;28.70;4.55;;;;;;;8.24;100.00;99632.66;7396487;19;19930;-80
2023/12/11 02:08:15;;;;;;;26.55;3.45;;;;;;;8.21;100.00;99637.38;7402131;19;19918;-80
2023/12/11 02:10:47;;;;;;;19.50;3.58;;;;;;;8.19;100.00;99643.97;7396488;19;19947;-80
2023/12/11 02:13:16;;;;;;;23.42;3.03;;;;;;;8.19;100.00;99642.13;7396378;19;19930;-80
2023/12/11 02:15:46;;;;;;;22.70;2.85;;;;;;;8.18;100.00;99631.56;7396040;19;20381;-80
2023/12/11 02:18:17;;;;;;;20.75;2.65;;;;;;;8.17;100.00;99629.91;7396461;19;19929;-80
2023/12/11 02:20:47;;;;;;;18.08;3.15;;;;;;;8.17;100.00;99624.53;7397087;19;19930;-80
2023/12/11 02:23:20;;;;;;;20.60;3.00;;;;;;;8.17;100.00;99630.75;7395707;19;19931;-80
2023/12/11 02:26:08;;;;;;;26.90;3.58;;;;;;;8.17;100.00;99622.69;7395265;19;19929;-80
2023/12/11 02:28:38;;;;;;;;;;;;;;;8.16;100.00;99633.59;7398224;19;19929;-80
2023/12/11 02:31:07;;;;;;;15.32;2.58;;;;;;;8.20;100.00;99616.94;7395342;19;20387;-80
2023/12/11 02:33:56;;;;;;;17.38;2.72;;;;;;;8.28;100.00;99625.91;7393947;19;19978;-80
2023/12/11 02:36:25;;;;;;;17.58;2.55;;;;;;;8.29;100.00;99632.91;7396303;19;19922;-80
2023/12/11 02:38:53;;;;;;;23.27;3.28;;;;;;;8.30;100.00;99619.34;7396251;19;19954;-80
2023/12/11 02:41:25;;;;;;;22.85;3.67;;;;;;;8.31;100.00;99620.16;7392553;19;20310;-80
2023/12/11 02:43:53;;;;;;;25.95;3.45;;;;;;;8.31;100.00;99614.81;7393706;19;19943;-80
2023/12/11 02:46:22;;;;;;;18.73;3.22;;;;;;;8.30;100.00;99600.56;7395661;19;19926;-80
2023/12/11 02:48:51;;;;;;;12.55;3.35;;;;;;;8.31;100.00;99596.84;7395403;19;20333;-80
2023/12/11 02:51:19;;;;;;;30.80;3.60;;;;;;;8.32;100.00;99586.94;7397637;19;19918;-80
2023/12/11 02:53:48;;;;;;;23.38;2.88;;;;;;;8.32;100.00;99579.75;7401330;19;19914;-79
2023/12/11 02:56:40;;;;;;;24.92;4.18;;;;;;;8.33;100.00;99581.38;7394319;19;20361;-80
2023/12/11 02:59:09;;;;;;;16.02;2.97;;;;;;;8.33;100.00;99580.53;7394607;19;20344;-80
2023/12/11 03:01:40;;;;;;;19.20;3.55;;;;;;;8.33;100.00;99580.53;7393660;19;19925;-80
2023/12/11 03:04:09;;;;;;;23.05;3.17;;;;;;;8.35;100.00;99581.19;7395513;19;19919;-80
2023/12/11 03:06:38;;;;;;;23.23;3.22;;;;;;;8.34;100.00;99571.47;7394262;19;20275;-80
2023/12/11 03:09:07;;;;;;;21.10;3.58;;;;;;;8.33;100.00;99569.81;7393915;19;19929;-80
2023/12/11 03:11:39;;;;;;;20.70;3.35;;;;;;;8.33;100.00;99569.81;7395430;19;19914;-80
2023/12/11 03:14:07;;;;;;;29.13;3.75;;;;;;;8.32;100.00;99573.53;7394485;19;19951;-80
2023/12/11 03:16:36;;;;;;;22.50;3.67;;;;;;;8.33;100.00;99567.13;7395707;19;19923;-80
2023/12/11 03:19:05;;;;;;;27.40;3.13;;;;;;;8.34;100.00;99561.56;7395507;19;19919;-80
2023/12/11 03:21:33;;;;;;;18.60;3.42;;;;;;;8.35;100.00;99559.72;7401690;19;19922;-80
2023/12/11 03:24:02;;;;;;;19.15;3.53;;;;;;;8.35;100.00;99557.03;7393231;19;19951;-80
2023/12/11 03:26:31;;;;;;;27.10;4.55;;;;;;;8.36;100.00;99556.03;7395649;19;20274;-80
2023/12/11 03:29:03;;;;;;;26.85;4.18;;;;;;;8.37;100.00;99538.91;7394152;19;20272;-80
2023/12/11 03:31:31;;;;;;;25.15;4.28;;;;;;;8.39;100.00;99531.47;7393994;19;21234;-80
2023/12/11 03:34:00;;;;;;;29.98;5.35;;;;;;;8.42;100.00;99536.44;7393794;19;19918;-80
2023/12/11 03:36:29;;;;;;;25.75;3.85;;;;;;;8.44;100.00;99537.09;7395785;19;19926;-80
2023/12/11 03:38:57;;;;;;;21.60;3.78;;;;;;;8.44;100.00;99526.34;7393240;19;20368;-80
2023/12/11 03:41:26;;;;;;;18.77;3.65;;;;;;;8.44;100.00;99524.50;7395227;19;19922;-80
2023/12/11 03:43:55;;;;;;;20.90;4.00;;;;;;;8.47;100.00;99528.63;7392488;19;19922;-80
2023/12/11 03:46:26;;;;;;;18.33;3.28;;;;;;;8.48;100.00;99527.63;7395864;19;19926;-80
2023/12/11 03:48:55;;;;;;;19.52;3.90;;;;;;;8.49;100.00;99532.81;7395223;19;19927;-80
2023/12/11 03:51:23;;;;;;;26.23;4.07;;;;;;;8.50;100.00;99510.28;7393079;19;20257;-79
2023/12/11 03:53:52;;;;;;;20.85;4.10;;;;;;;8.54;100.00;99510.75;7392855;19;19918;-80
2023/12/11 03:56:21;;;;;;;29.05;3.25;;;;;;;8.55;100.00;99505.16;7395568;19;19922;-80
2023/12/11 03:58:50;;;;;;;26.27;3.08;;;;;;;8.58;100.00;99512.00;7393400;19;20563;-80
2023/12/11 04:01:18;;;;;;;22.33;4.07;;;;;;;8.59;100.00;99506.41;7394706;19;19984;-80
2023/12/11 04:03:49;;;;;;;30.67;3.60;;;;;;;8.60;100.00;99509.94;7395169;19;19919;-80
2023/12/11 04:06:18;;;;;;;27.17;4.28;;;;;;;8.62;100.00;99515.94;7395516;19;19941;-80
2023/12/11 04:08:47;;;;;;;31.90;4.00;;;;;;;8.61;100.00;99503.53;7392015;19;19922;-80
2023/12/11 04:11:16;;;;;;;19.88;3.30;;;;;;;8.59;100.00;99495.69;7394825;19;19926;-80
2023/12/11 04:13:45;;;;;;;27.88;3.63;;;;;;;8.58;100.00;99498.59;7395046;19;19935;-80
2023/12/11 04:16:34;;;;;;;24.35;4.03;;;;;;;8.57;100.00;99499.59;7400143;19;20004;-80
2023/12/11 04:19:05;;;;;;;29.58;3.70;;;;;;;8.56;100.00;99501.44;7400761;19;19919;-80
2023/12/11 04:21:34;;;;;;;15.70;4.07;;;;;;;8.55;100.00;99499.78;7400831;19;19923;-80
2023/12/11 04:24:02;;;;;;;29.05;3.67;;;;;;;8.55;100.00;99498.97;7400196;19;19929;-80
2023/12/11 04:26:31;;;;;;;25.75;4.55;;;;;;;8.55;100.00;99504.31;7401034;19;19930;-80
2023/12/11 04:29:00;;;;;;;22.92;3.80;;;;;;;8.54;100.00;99490.06;7401238;19;19915;-80
2023/12/11 04:31:29;;;;;;;25.85;3.75;;;;;;;8.55;100.00;99493.59;7399992;19;19926;-80
2023/12/11 04:33:58;;;;;;;24.08;3.45;;;;;;;8.54;100.00;99491.94;7400047;19;19915;-79
2023/12/11 04:36:29;;;;;;;19.23;3.83;;;;;;;8.53;100.00;99493.81;7405436;19;19939;-79
2023/12/11 04:38:58;;;;;;;27.45;3.92;;;;;;;8.55;100.00;99483.69;7397406;19;19953;-80
2023/12/11 04:41:26;;;;;;;19.40;2.70;;;;;;;8.57;100.00;99494.22;7397704;19;20357;-79
2023/12/11 04:43:55;;;;;;;23.75;3.65;;;;;;;8.57;100.00;99486.19;7398064;19;19922;-80
2023/12/11 04:46:24;;;;;;;29.40;3.55;;;;;;;8.60;100.00;99481.25;7396689;19;19955;-80
2023/12/11 04:48:52;;;;;;;16.27;3.30;;;;;;;8.62;100.00;99487.25;7402192;19;19923;-80
2023/12/11 04:51:21;;;;;;;16.08;3.03;;;;;;;8.62;100.00;99486.41;7396341;19;20281;-80
2023/12/11 04:53:52;;;;;;;20.50;4.40;;;;;;;8.61;100.00;99474.03;7398986;19;19919;-80
2023/12/11 04:56:21;;;;;;;30.73;3.97;;;;;;;8.59;100.00;99478.75;7400380;19;19919;-80
2023/12/11 04:58:49;;;;;;;26.77;4.13;;;;;;;8.58;100.00;99480.63;7398608;19;20506;-80
2023/12/11 05:01:18;;;;;;;23.98;4.70;;;;;;;8.58;100.00;99483.31;7398223;19;19926;-80
2023/12/11 05:03:47;;;;;;;22.17;3.97;;;;;;;8.59;100.00;99486.78;7400379;19;19933;-80
2023/12/11 05:06:16;;;;;;;21.65;4.22;;;;;;;8.60;100.00;99483.09;7402055;19;19918;-80
2023/12/11 05:08:44;;;;;;;24.92;3.83;;;;;;;8.58;100.00;99474.44;7401726;19;19926;-80
2023/12/11 05:11:15;;;;;;;22.23;3.63;;;;;;;8.57;100.00;99478.13;7402144;19;20249;-79
2023/12/11 05:13:44;;;;;;;26.20;2.75;;;;;;;8.58;100.00;99493.22;7399396;19;19929;-79
2023/12/11 05:16:13;;;;;;;31.40;4.43;;;;;;;8.58;100.00;99472.56;7398455;19;20497;-79
2023/12/11 05:18:42;;;;;;;21.20;3.00;;;;;;;8.57;100.00;99481.66;7397436;19;19942;-79
2023/12/11 05:21:31;;;;;;;;;;;;;;;8.48;100.00;99472.09;7400267;19;19978;-79
2023/12/11 05:23:59;;;;;;;16.45;2.70;;;;;;;8.51;100.00;99478.91;7399039;19;19922;-79
2023/12/11 05:26:31;;;;;;;25.35;4.28;;;;;;;8.49;100.00;99463.03;7397510;19;19941;-79
2023/12/11 05:29:00;;;;;;;24.67;4.30;;;;;;;8.49;100.00;99478.28;7397902;19;19925;-79
2023/12/11 05:31:29;;;;;;;20.42;4.45;;;;;;;8.49;100.00;99479.13;7399389;19;19919;-79
2023/12/11 05:33:57;;;;;;;14.90;2.80;;;;;;;8.49;100.00;99468.38;7396100;19;19923;-79
2023/12/11 05:36:26;;;;;;;24.45;3.92;;;;;;;8.50;100.00;99474.59;7399920;19;20382;-80
2023/12/11 05:38:55;;;;;;;24.48;3.10;;;;;;;8.51;100.00;99460.13;7397279;19;19922;-79
2023/12/11 05:41:23;;;;;;;28.73;3.63;;;;;;;8.52;100.00;99461.78;7398160;19;19922;-79
2023/12/11 05:43:57;;;;;;;20.95;4.75;;;;;;;8.53;100.00;99452.72;7399937;19;19930;-80
2023/12/11 05:46:26;;;;;;;28.73;3.40;;;;;;;8.52;100.00;99454.56;7397965;19;20384;-79
2023/12/11 05:48:54;;;;;;;25.65;4.63;;;;;;;8.52;100.00;99448.38;7403398;19;19925;-80
2023/12/11 05:51:24;;;;;;;17.48;2.67;;;;;;;8.53;100.00;99461.59;7398367;19;19929;-79
2023/12/11 05:53:55;;;;;;;16.58;3.20;;;;;;;8.54;100.00;99457.88;7399091;19;19930;-79
2023/12/11 05:56:24;;;;;;;22.05;4.15;;;;;;;8.53;100.00;99450.03;7397831;19;19939;-79
2023/12/11 05:58:55;;;;;;;26.90;3.63;;;;;;;8.52;100.00;99456.41;7398158;19;19927;-79
2023/12/11 06:01:25;;;;;;;21.70;3.15;;;;;;;8.51;100.00;99449.38;7395606;19;19998;-79
2023/12/11 06:03:53;;;;;;;18.33;2.78;;;;;;;8.49;100.00;99435.34;7399250;19;20828;-79
2023/12/11 06:06:22;;;;;;;23.20;3.78;;;;;;;8.48;100.00;99450.63;7397400;19;19929;-79
2023/12/11 06:08:51;;;;;;;15.93;2.63;;;;;;;8.49;100.00;99440.72;7396221;19;19915;-79
2023/12/11 06:11:19;;;;;;;29.00;2.83;;;;;;;8.49;100.00;99440.72;7398145;19;19925;-79
2023/12/11 06:13:48;;;;;;;20.80;2.97;;;;;;;8.48;100.00;99445.25;7397908;19;19938;-80
2023/12/11 06:16:20;;;;;;;21.08;3.50;;;;;;;8.48;100.00;99447.94;7398087;19;19926;-80
2023/12/11 06:18:49;;;;;;;;;;;;;;;8.41;100.00;99449.78;7399070;19;19914;-79
2023/12/11 06:21:21;;;;;;;16.80;2.72;;;;;;;8.46;100.00;99443.78;7397896;19;19949;-79
2023/12/11 06:23:50;;;;;;;27.38;3.42;;;;;;;8.44;100.00;99441.31;7395817;19;20412;-79
2023/12/11 06:26:30;;;;;;;21.88;3.42;;;;;;;8.43;100.00;99438.81;7398426;19;19943;-79
2023/12/11 06:29:00;;;;;;;23.13;3.10;;;;;;;8.45;100.00;99437.59;7397021;19;20649;-80
2023/12/11 06:31:33;;;;;;;21.58;3.25;;;;;;;8.47;100.00;99440.06;7398226;19;19922;-79
2023/12/11 06:34:01;;;;;;;23.55;3.53;;;;;;;8.48;100.00;99441.75;7397478;19;19954;-80
2023/12/11 06:36:31;;;;;;;24.73;4.28;;;;;;;8.49;100.00;99451.44;7394431;19;19927;-79
2023/12/11 06:38:59;;;;;;;15.35;3.35;;;;;;;8.49;100.00;99441.56;7393695;19;19935;-80
2023/12/11 06:41:28;;;;;;;20.25;3.25;;;;;;;8.49;100.00;99438.03;7397203;19;22404;-79
2023/12/11 06:43:57;;;;;;;18.45;3.22;;;;;;;8.50;100.00;99453.13;7397436;19;19922;-79
2023/12/11 06:46:29;;;;;;;17.13;3.00;;;;;;;8.50;100.00;99437.00;7394302;19;19950;-80
2023/12/11 06:49:00;;;;;;;17.42;2.85;;;;;;;8.51;100.00;99430.59;7395575;19;19930;-79
2023/12/11 06:51:29;;;;;;;15.43;3.72;;;;;;;8.50;100.00;99428.97;7396122;19;20353;-79
2023/12/11 06:53:58;;;;;;;20.90;4.03;;;;;;;8.51;100.00;99433.28;7396172;19;19915;-80
2023/12/11 06:56:30;;;;;;;22.65;3.25;;;;;;;8.53;100.00;99441.97;7396152;19;19947;-81
2023/12/11 06:58:59;;;;;;;;;;;;;;;8.45;100.00;99440.28;7403745;19;20227;-78
2023/12/11 07:01:29;;;;;;;27.45;3.63;;;;;;;8.52;100.00;99443.00;7402468;19;19915;-78
2023/12/11 07:04:01;;;;;;;21.33;3.53;;;;;;;8.55;100.00;99432.69;7393498;19;20278;-82
2023/12/11 07:06:30;;;;;;;24.90;2.97;;;;;;;8.55;100.00;99429.16;7394401;19;19926;-78
2023/12/11 07:08:59;;;;;;;13.80;2.58;;;;;;;8.53;100.00;99433.94;7392812;19;19926;-78
2023/12/11 07:11:28;;;;;;;20.77;3.08;;;;;;;8.55;100.00;99439.91;7392476;19;19930;-76
2023/12/11 07:13:57;;;;;;;13.88;2.63;;;;;;;8.54;100.00;99441.75;7393388;19;19950;-76
2023/12/11 07:16:26;;;;;;;13.25;2.55;;;;;;;8.55;100.00;99451.47;7394287;19;19929;-76
2023/12/11 07:18:55;;;;;;;16.65;2.28;;;;;;;8.55;100.00;99445.28;7395590;19;19918;-75
2023/12/11 07:21:26;;;;;;;12.85;2.30;;;;;;;8.55;100.00;99434.53;7396313;19;20452;-75
2023/12/11 07:23:55;;;;;;;18.25;2.78;;;;;;;8.52;100.00;99435.78;7398431;19;19925;-78
2023/12/11 07:26:24;;;;;;;11.95;2.13;;;;;;;8.50;100.00;99437.00;7394395;19;19922;-77
2023/12/11 07:28:53;;;;;;;20.13;3.25;;;;;;;8.49;100.00;99421.94;7386919;19;20022;-78
2023/12/11 07:34:16;;;;;;;18.67;2.92;;;;;;;8.46;100.00;99433.03;7394578;19;19919;-78
2023/12/11 07:36:50;;;;;;;13.32;2.50;;;;;;;8.43;100.00;99425.41;7394790;19;20359;-78
2023/12/11 07:39:19;;;;;;;14.55;3.65;;;;;;;8.44;100.00;99430.56;7393236;19;20324;-78
2023/12/11 07:41:49;;;;;;;16.98;3.40;;;;;;;8.44;100.00;99435.94;7395993;19;20237;-78
2023/12/11 07:44:25;;;;;;;15.20;2.35;;;;;;;8.43;100.00;99428.09;7398020;19;19926;-77
2023/12/11 07:47:02;;;;;;;18.23;3.33;;;;;;;8.43;100.00;99441.50;7400074;19;19937;-77
2023/12/11 07:49:32;;;;;;;17.45;2.00;;;;;;;8.42;100.00;99442.50;7398350;19;19956;-78
2023/12/11 07:52:09;;;;;;;25.60;3.08;;;;;;;8.40;100.00;99431.16;7403366;19;19924;-78
2023/12/11 07:54:44;;;;;;;15.07;2.70;;;;;;;8.41;100.00;99432.84;7408456;19;20333;-78
2023/12/11 07:57:33;;;;;;;17.48;2.47;;;;;;;8.40;100.00;99426.63;7406703;19;20296;-78
2023/12/11 08:00:09;;;;;;;24.05;2.85;;;;;;;8.38;100.00;99426.00;7411133;19;19927;-78
2023/12/11 08:05:27;;;;;;;19.08;3.25;;;;;;;8.42;100.00;99445.19;7410610;19;19918;-78
2023/12/11 08:08:03;;;;;;;16.30;2.90;;;;;;;8.41;100.00;99420.25;7417213;19;19927;-78
2023/12/11 08:10:36;;;;;;;19.58;3.42;;;;;;;8.45;100.00;99421.50;7416357;19;19926;-78
2023/12/11 08:13:07;;;;;;;19.70;3.08;;;;;;;8.47;100.00;99424.81;7405113;19;19914;-78
2023/12/11 08:15:42;;;;;;;24.50;2.75;;;;;;;8.47;100.00;99429.34;7400747;19;19929;-78
2023/12/11 08:18:11;;;;;;;14.50;3.10;;;;;;;8.47;100.00;99427.47;7397663;19;20245;-78
2023/12/11 08:20:40;;;;;;;12.77;2.08;;;;;;;8.47;100.00;99434.72;7398993;19;19934;-78
2023/12/11 08:23:11;;;;;;;22.88;3.35;;;;;;;8.45;100.00;99426.88;7396792;19;19914;-78
2023/12/11 08:25:41;;;;;;;13.43;2.35;;;;;;;8.45;100.00;99429.56;7395472;19;20293;-78
2023/12/11 08:28:10;;;;;;;17.10;2.92;;;;;;;8.45;100.00;99423.34;7397803;19;19943;-78
2023/12/11 08:30:38;;;;;;;21.73;2.60;;;;;;;8.45;100.00;99423.34;7399918;19;19922;-78
2023/12/11 08:33:07;;;;;;;15.90;2.38;;;;;;;8.45;100.00;99426.03;7397411;19;19922;-78
2023/12/11 08:35:38;;;;;;;14.13;2.00;;;;;;;8.45;100.00;99426.03;7399640;19;19922;-77
2023/12/11 08:38:07;;;;;;;11.30;2.63;;;;;;;8.46;100.00;99425.00;7399539;19;19930;-78
2023/12/11 08:40:38;;;;;;;13.02;2.10;;;;;;;8.46;100.00;99425.00;7399446;19;19914;-78
2023/12/11 08:43:07;;;;;;;11.70;2.17;;;;;;;8.47;100.00;99423.97;7400223;19;19943;-78
2023/12/11 08:45:35;;;;;;;15.77;2.65;;;;;;;8.47;100.00;99426.66;7400066;19;19923;-78
2023/12/11 08:48:05;;;;;;;14.88;2.78;;;;;;;8.47;100.00;99435.53;7400827;19;20326;-78
2023/12/11 08:50:34;;;;;;;13.30;2.38;;;;;;;8.46;100.00;99433.03;7400952;19;19914;-78
2023/12/11 08:53:05;;;;;;;25.33;3.33;;;;;;;8.46;100.00;99430.34;7398675;19;19919;-78
2023/12/11 08:55:34;;;;;;;12.35;2.30;;;;;;;8.45;100.00;99442.16;7401158;19;19949;-78
2023/12/11 08:58:05;;;;;;;11.63;2.40;;;;;;;8.45;100.00;99439.47;7399905;19;19930;-78
2023/12/11 09:00:34;;;;;;;13.23;2.38;;;;;;;8.42;100.00;99435.28;7397139;19;19918;-78
2023/12/11 09:03:03;;;;;;;13.30;2.65;;;;;;;8.43;100.00;99447.69;7399523;19;19929;-78
2023/12/11 09:05:32;;;;;;;10.80;3.03;;;;;;;8.44;100.00;99448.53;7396924;19;19918;-78
2023/12/11 09:08:01;;;;;;;14.80;2.28;;;;;;;8.43;100.00;99449.56;7399500;19;19922;-78
2023/12/11 09:10:30;;;;;;;16.10;2.33;;;;;;;8.43;100.00;99446.88;7398760;19;19926;-78
2023/12/11 09:13:03;;;;;;;13.82;2.28;;;;;;;8.44;100.00;99453.91;7399846;19;19926;-78
2023/12/11 09:15:34;;;;;;;11.65;2.17;;;;;;;8.43;100.00;99454.91;7399384;19;19925;-77
2023/12/11 09:18:23;;;;;;;15.05;2.08;;;;;;;8.43;100.00;99463.78;7399220;19;20329;-77
2023/12/11 09:20:52;;;;;;;10.80;1.77;;;;;;;8.43;100.00;99468.34;7398900;19;19925;-78
2023/12/11 09:23:20;;;;;;;9.38;1.85;;;;;;;8.42;100.00;99464.81;7401639;19;19911;-77
2023/12/11 09:25:49;;;;;;;8.18;1.60;;;;;;;8.44;100.00;99472.69;7398375;19;20289;-77
2023/12/11 09:28:18;;;;;;;9.65;2.25;;;;;;;8.43;100.00;99471.03;7397964;19;19922;-78
2023/12/11 09:30:49;;;;;;;8.52;1.55;;;;;;;8.43;100.00;99471.84;7396401;19;19943;-78
2023/12/11 09:33:18;;;;;;;8.75;1.80;;;;;;;8.44;100.00;99481.56;7397650;19;19915;-77
2023/12/11 09:35:47;;;;;;;7.13;1.52;;;;;;;8.44;100.00;99486.09;7396358;19;19915;-77
2023/12/11 09:38:16;;;;;;;7.97;1.90;;;;;;;8.46;100.00;99497.44;7400012;19;20594;-77
2023/12/11 09:40:45;;;;;;;8.63;2.72;;;;;;;8.47;100.00;99496.44;7401471;19;19926;-77
2023/12/11 09:43:15;;;;;;;12.63;2.40;;;;;;;8.47;100.00;99502.63;7401289;19;19922;-77
2023/12/11 09:45:45;;;;;;;5.90;2.30;;;;;;;8.49;100.00;99505.13;7398758;19;19922;-77
2023/12/11 09:48:16;;;;;;;13.05;2.58;;;;;;;8.50;100.00;99515.66;7396869;19;19958;-78
2023/12/11 09:50:46;;;;;;;8.15;2.40;;;;;;;8.51;100.00;99520.00;7397812;19;20273;-79
2023/12/11 09:53:16;;;;;;;8.90;2.15;;;;;;;8.53;100.00;99528.69;7398207;19;19919;-77
2023/12/11 09:55:45;;;;;;;9.40;2.45;;;;;;;8.56;100.00;99524.78;7397376;19;19911;-78
2023/12/11 09:58:15;;;;;;;7.60;1.80;;;;;;;8.55;100.00;99532.00;7398402;19;19925;-77
2023/12/11 10:00:45;;;;;;;9.77;2.00;;;;;;;8.54;100.00;99535.69;7396550;19;19915;-77
2023/12/11 10:03:18;;;;;;;5.93;1.50;;;;;;;8.58;100.00;99536.16;7395730;19;19930;-77
2023/12/11 10:05:47;;;;;;;7.57;1.30;;;;;;;8.59;100.00;99544.00;7396182;19;19926;-77
2023/12/11 10:08:17;;;;;;;6.20;1.20;;;;;;;8.60;100.00;99542.97;7397356;19;20676;-77
2023/12/11 10:10:46;;;;;;;4.88;1.20;;;;;;;8.61;100.00;99544.66;7396936;19;19939;-78
2023/12/11 10:13:35;;;;;;;3.13;1.20;;;;;;;8.61;100.00;99554.53;7393203;19;19926;-78
2023/12/11 10:16:04;;;;;;;8.82;1.42;;;;;;;8.63;100.00;99556.00;7397127;19;19927;-78
2023/12/11 10:18:49;;;;;;;6.00;1.75;;;;;;;8.65;100.00;99563.88;7396802;19;19957;-77
2023/12/11 10:21:17;;;;;;;6.70;1.48;;;;;;;8.69;100.00;99573.19;7396820;19;20208;-77
2023/12/11 10:23:46;;;;;;;5.00;1.80;;;;;;;8.70;100.00;99577.53;7397933;19;20236;-78
2023/12/11 10:26:16;;;;;;;6.85;1.67;;;;;;;8.72;100.00;99572.78;7398160;19;19926;-77
2023/12/11 10:28:45;;;;;;;6.18;1.48;;;;;;;8.73;100.00;99590.56;7397993;19;19982;-78
2023/12/11 10:31:13;;;;;;;8.18;1.83;;;;;;;8.76;100.00;99584.78;7403371;19;19919;-77
2023/12/11 10:33:51;;;;;;;6.63;1.48;;;;;;;8.78;100.00;99589.97;7398296;19;19927;-77
2023/12/11 10:36:22;;;;;;;9.02;2.10;;;;;;;8.81;100.00;99586.88;7395885;19;19922;-78
2023/12/11 10:38:51;;;;;;;8.98;1.67;;;;;;;8.82;100.00;99600.13;7394020;19;19926;-78
2023/12/11 10:41:27;;;;;;;9.23;1.92;;;;;;;8.81;100.00;99606.50;7391142;19;19926;-75
2023/12/11 10:43:56;;;;;;;7.03;2.70;;;;;;;8.85;100.00;99612.31;7395621;19;19923;-75
2023/12/11 10:46:24;;;;;;;9.15;1.63;;;;;;;8.85;100.00;99618.53;7395009;19;20294;-75
2023/12/11 10:48:57;;;;;;;9.20;1.98;;;;;;;8.86;100.00;99620.19;7395795;19;19922;-76
2023/12/11 10:51:45;;;;;;;6.50;1.70;;;;;;;8.87;100.00;99631.75;7394941;19;19926;-75
2023/12/11 10:54:14;;;;;;;6.38;1.50;;;;;;;8.86;100.00;99635.47;7394361;19;19918;-75
2023/12/11 10:56:45;;;;;;;7.70;1.77;;;;;;;8.87;100.00;99643.34;7395231;19;20291;-75
2023/12/11 10:59:14;;;;;;;7.65;2.00;;;;;;;8.88;100.00;99642.31;7393502;19;20371;-75
2023/12/11 11:02:04;;;;;;;11.15;2.35;;;;;;;8.88;100.00;99655.75;7393219;19;19918;-76
2023/12/11 11:04:40;;;;;;;8.77;1.98;;;;;;;8.87;100.00;99658.63;7394572;19;20261;-76
2023/12/11 11:07:32;;;;;;;12.80;1.58;;;;;;;8.87;100.00;99669.34;7394008;19;20956;-76
2023/12/11 11:10:09;;;;;;;9.88;1.30;;;;;;;8.81;100.00;99681.69;7394575;19;20506;-75
2023/12/11 11:12:45;;;;;;;8.25;1.35;;;;;;;8.71;100.00;99672.34;7393670;19;19970;-76
2023/12/11 11:15:13;;;;;;;10.50;1.30;;;;;;;8.61;100.00;99678.03;7395532;19;19919;-76
2023/12/11 11:18:00;;;;;;;7.13;0.80;;;;;;;8.53;100.00;99686.22;7394943;19;19923;-75
2023/12/11 11:20:32;;;;;;;5.75;1.52;;;;;;;8.56;100.00;99688.50;7395055;19;19911;-77
2023/12/11 11:23:16;;;;;;;;;;;;;;;8.51;100.00;99690.94;7396796;19;19955;-78
2023/12/11 11:25:50;;;;;;;6.03;1.40;;;;;;;8.55;100.00;99703.78;7399577;19;20260;-78
2023/12/11 11:28:37;;;;;;;3.03;1.05;;;;;;;8.54;100.00;99707.47;7399121;19;19910;-78
2023/12/11 11:31:06;;;;;;;6.60;1.25;;;;;;;8.58;100.00;99714.16;7400471;19;19923;-78
2023/12/11 11:33:46;;;;;;;5.97;1.42;;;;;;;8.56;100.00;99712.69;7397195;19;20267;-78
2023/12/11 11:36:20;;;;;;;6.88;1.48;;;;;;;8.59;100.00;99714.97;7399737;19;19934;-78
2023/12/11 11:38:57;;;;;;;12.32;1.52;;;;;;;8.64;100.00;99725.97;7400278;19;20404;-78
2023/12/11 11:41:28;;;;;;;11.52;1.65;;;;;;;8.69;100.00;99736.97;7405380;19;20365;-78
2023/12/11 11:44:01;;;;;;;9.68;2.10;;;;;;;8.71;100.00;99742.97;7399853;19;19921;-75
2023/12/11 11:46:30;;;;;;;9.55;1.33;;;;;;;8.70;100.00;99735.94;7398432;19;19925;-75
2023/12/11 11:48:59;;;;;;;8.18;1.42;;;;;;;8.73;100.00;99748.13;7399446;19;19951;-75
2023/12/11 11:51:31;;;;;;;10.93;1.67;;;;;;;8.74;100.00;99752.50;7399577;19;19919;-75